Time;durP1;ratioP1;P1;durP2;ratioP2;P2;SDS_P1;SDS_P2;PMS_P1;PMS_P2;Temp;Humidity;BMP_temperature;BMP_pressure;BME280_temperature;BME280_humidity;BME280_pressure;Samples;Min_cycle;Max_cycle;Signal;HPM_P1;HPM_P2
2022/10/21 00:01:49;;;;;;;33.30;19.25;;;;;;;14.31;100.00;99719.03;5038146;28;20055;-86
2022/10/21 00:04:16;;;;;;;36.50;18.98;;;;;;;14.32;100.00;99718.03;5017051;28;20071;-85
2022/10/21 00:06:43;;;;;;;35.90;19.63;;;;;;;14.33;100.00;99730.41;5025553;28;20127;-86
2022/10/21 00:09:09;;;;;;;28.52;16.63;;;;;;;14.31;100.00;99723.53;5028177;28;20045;-86
2022/10/21 00:11:36;;;;;;;44.67;18.77;;;;;;;14.31;100.00;99716.34;5019788;28;20045;-86
2022/10/21 00:14:03;;;;;;;38.28;18.52;;;;;;;14.31;100.00;99712.84;5023460;28;20400;-85
2022/10/21 00:16:30;;;;;;;38.70;18.23;;;;;;;14.29;100.00;99717.53;5038298;28;20044;-86
2022/10/21 00:18:56;;;;;;;38.03;18.15;;;;;;;14.24;100.00;99696.63;5048197;28;20473;-85
2022/10/21 00:21:23;;;;;;;30.65;16.45;;;;;;;14.23;100.00;99700.31;5041028;28;20897;-86
2022/10/21 00:23:50;;;;;;;32.60;17.20;;;;;;;14.22;100.00;99705.81;5033911;28;20040;-85
2022/10/21 00:26:17;;;;;;;38.60;17.85;;;;;;;14.16;100.00;99693.13;5009282;28;20132;-86
2022/10/21 00:28:44;;;;;;;42.30;19.42;;;;;;;14.19;100.00;99682.94;5032723;28;20493;-85
2022/10/21 00:31:13;;;;;;;36.17;18.35;;;;;;;14.18;100.00;99689.28;5037785;28;20499;-85
2022/10/21 00:33:40;;;;;;;36.78;17.95;;;;;;;14.19;100.00;99692.78;5037468;28;20049;-85
2022/10/21 00:36:13;;;;;;;35.85;17.38;;;;;;;14.16;100.00;99687.78;5033519;28;20048;-85
2022/10/21 00:38:42;;;;;;;35.35;18.45;;;;;;;14.14;100.00;99695.94;5023592;28;20060;-85
2022/10/21 00:41:10;;;;;;;31.83;17.35;;;;;;;14.14;100.00;99697.78;5008721;28;20677;-85
2022/10/21 00:44:06;;;;;;;35.30;18.77;;;;;;;14.06;100.00;99680.72;5033195;28;20045;-86
2022/10/21 00:46:46;;;;;;;33.40;17.77;;;;;;;14.12;100.00;99681.94;5013846;28;20044;-86
2022/10/21 00:49:40;;;;;;;32.75;17.88;;;;;;;14.00;100.00;99677.88;4976817;28;20044;-86
2022/10/21 00:52:08;;;;;;;;;;;;;;;13.86;100.00;99682.00;5014174;28;20110;-86
2022/10/21 00:54:35;;;;;;;33.25;17.45;;;;;;;14.06;100.00;99670.03;5023345;28;19955;-86
2022/10/21 00:57:02;;;;;;;30.40;16.73;;;;;;;14.09;100.00;99679.56;5039507;28;20073;-86
2022/10/21 00:59:35;;;;;;;35.85;17.52;;;;;;;14.07;100.00;99678.91;5046235;28;20078;-86
2022/10/21 01:02:02;;;;;;;33.30;16.00;;;;;;;14.10;100.00;99674.06;5046984;28;20106;-86
2022/10/21 01:04:28;;;;;;;29.67;16.58;;;;;;;14.13;100.00;99691.59;5026354;28;20082;-86
2022/10/21 01:06:56;;;;;;;38.63;18.10;;;;;;;14.15;100.00;99654.06;5030130;28;20064;-86
2022/10/21 01:09:24;;;;;;;37.75;18.27;;;;;;;14.14;100.00;99666.56;5029804;28;20130;-86
2022/10/21 01:11:51;;;;;;;36.83;18.17;;;;;;;14.13;100.00;99643.53;5031754;28;20044;-86
2022/10/21 01:14:25;;;;;;;33.88;17.05;;;;;;;14.15;99.80;99660.25;5026366;28;21086;-86
2022/10/21 01:17:16;;;;;;;32.47;17.25;;;;;;;14.09;100.00;99666.22;5008000;28;20393;-86
2022/10/21 01:20:10;;;;;;;35.33;18.65;;;;;;;14.13;100.00;99661.41;4980586;28;20041;-86
2022/10/21 01:22:37;;;;;;;32.45;15.77;;;;;;;14.09;100.00;99648.38;5021427;28;20068;-85
2022/10/21 01:25:28;;;;;;;33.35;17.33;;;;;;;14.01;100.00;99651.00;5054150;28;20132;-85
2022/10/21 01:28:06;;;;;;;41.92;17.35;;;;;;;14.01;100.00;99645.66;5008712;28;20095;-85
2022/10/21 01:30:35;;;;;;;32.47;16.90;;;;;;;14.04;100.00;99632.03;5019835;28;20068;-86
2022/10/21 01:33:20;;;;;;;32.03;17.13;;;;;;;14.03;100.00;99616.16;5054548;28;20780;-86
2022/10/21 01:36:07;;;;;;;34.85;16.73;;;;;;;14.00;99.90;99619.16;5033688;28;20144;-86
2022/10/21 01:39:02;;;;;;;35.05;15.73;;;;;;;13.85;99.85;99614.44;4989590;28;20048;-86
2022/10/21 01:41:32;;;;;;;30.13;16.30;;;;;;;13.97;99.90;99595.44;4981186;28;20404;-86
2022/10/21 01:44:03;;;;;;;39.60;16.55;;;;;;;13.98;100.00;99586.44;5053086;28;20045;-85
2022/10/21 01:46:53;;;;;;;33.65;17.95;;;;;;;13.84;100.00;99601.25;4996711;28;20044;-86
2022/10/21 01:49:27;;;;;;;40.30;18.80;;;;;;;13.96;99.64;99589.25;5014291;28;20601;-86
2022/10/21 01:51:54;;;;;;;39.47;18.85;;;;;;;13.98;100.00;99584.59;4994836;28;20048;-84
2022/10/21 01:54:29;;;;;;;36.28;17.52;;;;;;;13.92;99.85;99589.75;5048115;28;20044;-86
2022/10/21 01:56:57;;;;;;;33.88;17.50;;;;;;;13.94;100.00;99583.25;5007681;28;20044;-86
2022/10/21 01:59:25;;;;;;;34.67;16.38;;;;;;;13.97;99.95;99585.63;5040804;28;20499;-86
2022/10/21 02:01:53;;;;;;;33.75;16.65;;;;;;;13.96;99.42;99583.94;5025455;28;20095;-86
2022/10/21 02:04:21;;;;;;;32.08;17.05;;;;;;;13.96;99.37;99589.25;5039865;28;20068;-86
2022/10/21 02:06:47;;;;;;;37.63;18.40;;;;;;;13.93;99.62;99592.28;5038943;28;20068;-86
2022/10/21 02:09:14;;;;;;;31.98;15.85;;;;;;;13.93;99.86;99591.44;5039159;28;20071;-86
2022/10/21 02:11:44;;;;;;;32.33;15.70;;;;;;;13.92;99.27;99584.41;5040456;28;20095;-86
2022/10/21 02:14:17;;;;;;;37.05;17.77;;;;;;;13.89;98.82;99580.22;5054431;28;20455;-85
2022/10/21 02:16:44;;;;;;;33.72;18.23;;;;;;;13.93;99.46;99586.94;5028493;28;20404;-86
2022/10/21 02:19:16;;;;;;;37.95;16.60;;;;;;;13.85;99.43;99589.59;5029205;28;20492;-87
2022/10/21 02:21:44;;;;;;;31.92;16.50;;;;;;;13.89;99.42;99593.56;5056210;28;20068;-86
2022/10/21 02:24:32;;;;;;;35.30;16.27;;;;;;;13.79;99.11;99592.88;5037740;28;20439;-86
2022/10/21 02:26:58;;;;;;;37.58;16.15;;;;;;;13.84;99.37;99587.91;4996569;28;20053;-86
2022/10/21 02:29:29;;;;;;;36.95;17.45;;;;;;;13.83;98.55;99579.06;5061005;28;20048;-86
2022/10/21 02:32:31;;;;;;;71.70;17.75;;;;;;;13.73;99.04;99581.03;5022847;28;20554;-86
2022/10/21 02:35:23;;;;;;;36.73;16.77;;;;;;;13.75;99.34;99571.03;4919927;28;20055;-86
2022/10/21 02:38:13;;;;;;;105.03;19.42;;;;;;;13.78;99.43;99589.38;4916101;28;20445;-86
2022/10/21 02:40:47;;;;;;;50.00;17.48;;;;;;;13.74;99.70;99585.38;4943815;28;20086;-86
2022/10/21 02:43:16;;;;;;;54.83;17.40;;;;;;;13.78;99.59;99575.22;4944656;28;20184;-86
2022/10/21 02:45:45;;;;;;;61.05;16.85;;;;;;;13.82;99.43;99577.41;4952578;28;20113;-86
2022/10/21 02:48:12;;;;;;;32.80;15.25;;;;;;;13.82;99.88;99581.91;4965151;28;20054;-86
2022/10/21 02:50:39;;;;;;;27.88;15.82;;;;;;;13.82;100.00;99580.06;4949895;28;20603;-86
2022/10/21 02:53:07;;;;;;;28.35;16.35;;;;;;;13.83;99.64;99575.56;4974255;28;20071;-86
2022/10/21 02:55:34;;;;;;;31.55;17.42;;;;;;;13.85;99.60;99565.56;4967588;28;20054;-86
2022/10/21 02:58:00;;;;;;;34.65;17.85;;;;;;;13.82;99.68;99557.88;4947579;28;20082;-86
2022/10/21 03:00:27;;;;;;;30.83;16.33;;;;;;;13.84;99.39;99545.19;4948803;28;20049;-86
2022/10/21 03:02:59;;;;;;;36.95;18.45;;;;;;;13.82;99.46;99539.22;4976172;28;20491;-86
2022/10/21 03:05:25;;;;;;;31.48;16.70;;;;;;;13.82;99.37;99536.53;4989401;28;20086;-86
2022/10/21 03:07:52;;;;;;;33.70;16.67;;;;;;;13.83;99.33;99535.53;5013016;28;20044;-86
2022/10/21 03:10:19;;;;;;;30.42;17.02;;;;;;;13.82;99.32;99526.69;5014424;28;20119;-86
2022/10/21 03:12:48;;;;;;;32.80;17.00;;;;;;;13.83;99.10;99523.00;5029128;28;20082;-86
2022/10/21 03:15:15;;;;;;;41.95;18.85;;;;;;;13.85;98.92;99529.03;5022957;28;20071;-86
2022/10/21 03:17:42;;;;;;;32.60;17.88;;;;;;;13.83;98.74;99533.69;5026600;28;20124;-86
2022/10/21 03:20:09;;;;;;;29.05;16.02;;;;;;;13.80;99.01;99518.00;5036716;28;20044;-86
2022/10/21 03:22:36;;;;;;;31.30;16.55;;;;;;;13.80;98.72;99514.50;5030510;28;20127;-86
2022/10/21 03:25:03;;;;;;;31.15;16.45;;;;;;;13.81;98.57;99505.50;5028985;28;20064;-86
2022/10/21 03:27:30;;;;;;;35.72;17.02;;;;;;;13.80;98.50;99502.00;5010644;28;20503;-87
2022/10/21 03:30:03;;;;;;;32.83;16.73;;;;;;;13.80;98.36;99502.00;5038076;28;20055;-87
2022/10/21 03:32:30;;;;;;;32.00;16.92;;;;;;;13.77;98.66;99514.84;5014807;28;20707;-86
2022/10/21 03:34:57;;;;;;;29.67;16.23;;;;;;;13.79;98.51;99510.16;5048626;28;20048;-86
2022/10/21 03:37:24;;;;;;;31.35;16.20;;;;;;;13.75;98.38;99507.00;5007004;28;20098;-86
2022/10/21 03:39:50;;;;;;;32.55;16.27;;;;;;;13.78;98.02;99503.16;5011675;28;20164;-86
2022/10/21 03:42:17;;;;;;;29.67;16.45;;;;;;;13.74;98.01;99497.34;5040895;28;20045;-86
2022/10/21 03:44:44;;;;;;;32.53;16.67;;;;;;;13.73;98.29;99503.66;5025708;28;20036;-85
2022/10/21 03:47:11;;;;;;;28.92;15.07;;;;;;;13.71;98.27;99505.63;5029692;28;20599;-85
2022/10/21 03:49:37;;;;;;;32.30;15.63;;;;;;;13.69;98.58;99502.31;5022135;28;20060;-86
2022/10/21 03:52:05;;;;;;;27.48;13.95;;;;;;;13.68;98.52;99503.31;5006210;28;20107;-86
2022/10/21 03:54:31;;;;;;;31.58;16.83;;;;;;;13.71;98.14;99491.47;5025191;28;20468;-86
2022/10/21 03:56:58;;;;;;;29.52;14.73;;;;;;;13.68;98.14;99488.13;5039990;28;20095;-86
2022/10/21 03:59:25;;;;;;;26.52;14.63;;;;;;;13.69;97.88;99488.97;5036383;28;20407;-86
2022/10/21 04:01:51;;;;;;;34.47;16.02;;;;;;;13.73;97.76;99492.97;5032689;28;20163;-86
2022/10/21 04:04:18;;;;;;;30.85;15.77;;;;;;;13.70;98.15;99482.63;5027709;28;20564;-87
2022/10/21 04:06:45;;;;;;;31.48;15.85;;;;;;;13.74;97.68;99484.00;5013242;28;20109;-85
2022/10/21 04:09:12;;;;;;;32.40;15.32;;;;;;;13.75;97.58;99484.81;5045663;28;20041;-86
2022/10/21 04:11:38;;;;;;;32.95;16.23;;;;;;;13.71;97.82;99484.28;5031335;28;20108;-86
2022/10/21 04:14:05;;;;;;;34.42;17.02;;;;;;;13.74;97.29;99478.66;5037768;28;20083;-87
2022/10/21 04:16:37;;;;;;;28.63;16.55;;;;;;;13.71;97.30;99475.47;5033503;28;20037;-86
2022/10/21 04:19:03;;;;;;;30.02;16.10;;;;;;;13.71;97.33;99470.13;5032981;28;20064;-87
2022/10/21 04:21:30;;;;;;;33.95;15.60;;;;;;;13.66;97.81;99466.13;5055597;28;20132;-86
2022/10/21 04:23:57;;;;;;;31.73;14.50;;;;;;;13.64;98.08;99470.78;5024021;28;20514;-86
2022/10/21 04:26:24;;;;;;;29.23;14.15;;;;;;;13.63;98.26;99469.09;5034905;28;20476;-86
2022/10/21 04:28:51;;;;;;;30.00;15.02;;;;;;;13.64;97.78;99465.47;5018140;28;20052;-85
2022/10/21 04:31:17;;;;;;;27.30;15.18;;;;;;;13.63;97.93;99457.59;5044582;28;20049;-85
2022/10/21 04:33:44;;;;;;;27.27;15.07;;;;;;;13.69;97.55;99470.31;5033292;28;20052;-86
2022/10/21 04:36:11;;;;;;;30.25;16.33;;;;;;;13.63;97.83;99469.09;5011000;28;20045;-87
2022/10/21 04:38:38;;;;;;;28.70;15.57;;;;;;;13.66;97.80;99463.47;5044701;28;20086;-87
2022/10/21 04:41:04;;;;;;;27.67;14.13;;;;;;;13.70;97.57;99477.31;5042776;28;20582;-87
2022/10/21 04:43:31;;;;;;;29.67;14.98;;;;;;;13.70;97.62;99469.28;5028595;28;20045;-88
2022/10/21 04:45:58;;;;;;;29.58;14.20;;;;;;;13.68;97.70;99464.13;5044177;28;20462;-86
2022/10/21 04:48:24;;;;;;;21.70;13.82;;;;;;;13.66;97.83;99466.13;5055123;28;20049;-86
2022/10/21 04:50:52;;;;;;;24.33;13.85;;;;;;;13.69;97.74;99454.31;5043876;28;20041;-86
2022/10/21 04:53:19;;;;;;;30.83;14.45;;;;;;;13.69;98.12;99462.31;5045193;28;20100;-86
2022/10/21 04:55:52;;;;;;;29.58;15.60;;;;;;;13.63;98.13;99453.09;5012289;28;20099;-86
2022/10/21 04:58:19;;;;;;;30.70;14.63;;;;;;;13.69;97.93;99456.97;5040732;28;20128;-86
2022/10/21 05:00:49;;;;;;;30.08;15.02;;;;;;;13.71;97.63;99459.44;5015355;28;21935;-86
2022/10/21 05:03:16;;;;;;;28.58;15.05;;;;;;;13.74;97.31;99453.78;5039483;28;20060;-86
2022/10/21 05:05:43;;;;;;;26.75;15.38;;;;;;;13.75;97.01;99452.78;5045475;28;20087;-86
2022/10/21 05:08:10;;;;;;;25.90;14.95;;;;;;;13.71;97.46;99454.13;5024559;28;20103;-86
2022/10/21 05:10:37;;;;;;;31.60;16.00;;;;;;;13.73;97.17;99454.78;5031019;28;20045;-86
2022/10/21 05:13:04;;;;;;;34.08;18.63;;;;;;;13.73;97.07;99446.78;5019385;28;20132;-86
2022/10/21 05:15:32;;;;;;;32.60;17.52;;;;;;;13.71;97.27;99446.94;5034074;28;20037;-86
2022/10/21 05:17:59;;;;;;;31.40;17.15;;;;;;;13.73;97.10;99442.28;5042507;28;20051;-87
2022/10/21 05:20:26;;;;;;;28.73;15.07;;;;;;;13.66;97.48;99435.94;5010059;28;20487;-83
2022/10/21 05:22:53;;;;;;;30.25;15.02;;;;;;;13.63;97.09;99429.09;5012211;28;20044;-83
2022/10/21 05:25:20;;;;;;;29.27;15.88;;;;;;;13.67;97.01;99424.28;5044337;28;20044;-83
2022/10/21 05:27:48;;;;;;;38.80;15.63;;;;;;;13.64;96.88;99417.44;5054454;28;20548;-82
2022/10/21 05:30:15;;;;;;;28.83;16.17;;;;;;;13.63;96.76;99406.91;5042278;28;20451;-82
2022/10/21 05:32:41;;;;;;;29.25;14.88;;;;;;;13.64;96.73;99412.09;5047422;28;20450;-82
2022/10/21 05:35:10;;;;;;;29.30;14.70;;;;;;;13.66;97.12;99409.25;5041959;28;20048;-83
2022/10/21 05:37:37;;;;;;;33.78;16.27;;;;;;;13.67;96.94;99419.75;5055892;28;20083;-82
2022/10/21 05:40:05;;;;;;;23.92;13.88;;;;;;;13.66;97.14;99409.25;5044809;28;20044;-82
2022/10/21 05:42:32;;;;;;;30.42;14.93;;;;;;;13.65;97.49;99413.75;5018435;28;20511;-82
2022/10/21 05:44:58;;;;;;;29.83;15.35;;;;;;;13.67;97.43;99419.75;5027938;28;20068;-82
2022/10/21 05:47:25;;;;;;;28.13;14.52;;;;;;;13.68;97.35;99420.59;5031605;28;20041;-82
2022/10/21 05:49:52;;;;;;;29.05;13.70;;;;;;;13.70;97.13;99429.28;5048937;28;20045;-82
2022/10/21 05:52:18;;;;;;;32.00;14.82;;;;;;;13.71;97.38;99430.94;5040431;28;20091;-82
2022/10/21 05:54:45;;;;;;;32.03;14.98;;;;;;;13.71;98.04;99432.75;5040300;28;20052;-82
2022/10/21 05:57:12;;;;;;;25.73;14.07;;;;;;;13.73;97.87;99436.94;5026630;28;20044;-82
2022/10/21 05:59:39;;;;;;;27.05;15.02;;;;;;;13.73;97.64;99438.78;5054626;28;20099;-82
2022/10/21 06:02:05;;;;;;;30.88;14.38;;;;;;;13.75;97.94;99447.47;5027518;28;20049;-82
2022/10/21 06:04:32;;;;;;;32.60;15.38;;;;;;;13.76;97.96;99441.09;5045047;28;20098;-82
2022/10/21 06:07:04;;;;;;;29.02;15.02;;;;;;;13.79;97.48;99451.44;5039943;28;20056;-82
2022/10/21 06:09:31;;;;;;;30.58;14.52;;;;;;;13.77;97.55;99450.81;5032654;28;20067;-83
2022/10/21 06:11:57;;;;;;;28.77;14.60;;;;;;;13.77;97.72;99454.31;5040721;28;20076;-82
2022/10/21 06:14:25;;;;;;;27.65;14.50;;;;;;;13.78;97.75;99452.47;5056241;28;20435;-82
2022/10/21 06:16:51;;;;;;;32.72;14.02;;;;;;;13.77;97.67;99454.31;5037577;28;20045;-82
2022/10/21 06:19:18;;;;;;;30.70;14.05;;;;;;;13.77;97.72;99459.63;5056633;28;20496;-82
2022/10/21 06:21:46;;;;;;;28.90;15.00;;;;;;;13.80;97.55;99459.28;5028148;28;21141;-82
2022/10/21 06:24:13;;;;;;;29.52;15.48;;;;;;;13.77;97.87;99462.31;5048766;28;20040;-82
2022/10/21 06:26:39;;;;;;;34.88;15.68;;;;;;;13.75;97.66;99458.97;5044107;28;20183;-81
2022/10/21 06:29:06;;;;;;;33.20;15.23;;;;;;;13.76;97.70;99465.13;5042039;28;20439;-83
2022/10/21 06:31:33;;;;;;;27.50;15.10;;;;;;;13.76;97.57;99457.94;5038884;28;20040;-82
2022/10/21 06:34:00;;;;;;;32.67;14.07;;;;;;;13.76;97.52;99463.28;5052767;28;20072;-82
2022/10/21 06:36:26;;;;;;;30.00;14.07;;;;;;;13.74;97.92;99473.31;5040104;28;20045;-82
2022/10/21 06:38:53;;;;;;;25.55;14.98;;;;;;;13.75;97.90;99461.63;5025943;28;20072;-82
2022/10/21 06:41:20;;;;;;;33.35;15.05;;;;;;;13.74;97.81;99459.97;5048095;28;20615;-82
2022/10/21 06:43:46;;;;;;;34.67;15.68;;;;;;;13.76;97.96;99454.44;5061148;28;20136;-82
2022/10/21 06:46:14;;;;;;;31.50;14.70;;;;;;;13.75;97.93;99456.28;5042431;28;20435;-81
2022/10/21 06:48:41;;;;;;;39.83;16.17;;;;;;;13.74;97.92;99451.97;5052954;28;20083;-83
2022/10/21 06:51:13;;;;;;;24.17;14.40;;;;;;;13.73;97.89;99458.28;5045879;28;20134;-83
2022/10/21 06:53:41;;;;;;;29.58;14.85;;;;;;;13.74;98.45;99459.13;5042428;28;20480;-82
2022/10/21 06:56:10;;;;;;;29.90;15.48;;;;;;;13.74;98.41;99465.31;5049277;28;20535;-82
2022/10/21 06:58:42;;;;;;;33.65;15.57;;;;;;;13.77;97.98;99464.16;5036327;28;20534;-83
2022/10/21 07:01:11;;;;;;;30.83;15.38;;;;;;;13.79;98.00;99464.78;5032611;28;20464;-83
2022/10/21 07:03:58;;;;;;;35.38;15.30;;;;;;;13.76;98.62;99465.94;4996234;28;20043;-82
2022/10/21 07:06:24;;;;;;;32.22;15.88;;;;;;;13.78;98.73;99457.78;5034089;28;20048;-82
2022/10/21 07:08:51;;;;;;;37.08;16.73;;;;;;;13.81;98.17;99446.78;5030003;28;20094;-82
2022/10/21 07:11:26;;;;;;;37.10;17.50;;;;;;;13.77;98.12;99448.97;5017688;28;20068;-82
2022/10/21 07:13:53;;;;;;;39.03;17.88;;;;;;;13.77;98.21;99453.47;5043781;28;20103;-82
2022/10/21 07:16:21;;;;;;;34.90;18.02;;;;;;;13.77;98.22;99462.31;5024216;28;20049;-82
2022/10/21 07:18:48;;;;;;;33.15;18.20;;;;;;;13.79;98.30;99465.66;5048779;28;20044;-82
2022/10/21 07:21:20;;;;;;;32.92;17.67;;;;;;;13.78;98.38;99473.81;4994939;28;20048;-83
2022/10/21 07:23:49;;;;;;;32.40;15.88;;;;;;;13.78;99.09;99479.97;5019174;28;20045;-83
2022/10/21 07:26:18;;;;;;;35.72;17.58;;;;;;;13.82;98.90;99489.31;4991467;28;20139;-83
2022/10/21 07:28:46;;;;;;;36.92;17.33;;;;;;;13.80;99.30;99499.31;5024994;28;20099;-82
2022/10/21 07:31:14;;;;;;;39.60;18.00;;;;;;;13.83;99.47;99500.84;5010880;28;20049;-82
2022/10/21 07:33:41;;;;;;;35.67;18.58;;;;;;;13.82;99.43;99489.31;5033384;28;20064;-82
2022/10/21 07:36:09;;;;;;;30.30;17.45;;;;;;;13.83;99.20;99469.63;5026717;28;20493;-82
2022/10/21 07:38:36;;;;;;;34.05;17.92;;;;;;;13.86;98.90;99452.47;5060354;28;20419;-82
2022/10/21 07:41:03;;;;;;;35.60;16.48;;;;;;;13.86;98.49;99442.59;5041378;28;20048;-82
2022/10/21 07:43:30;;;;;;;31.92;16.15;;;;;;;13.87;98.94;99441.63;5025338;28;20068;-82
2022/10/21 07:45:58;;;;;;;34.20;16.73;;;;;;;13.87;99.11;99444.28;5019181;28;20175;-82
2022/10/21 07:48:30;;;;;;;30.13;15.90;;;;;;;13.88;99.20;99459.28;5001350;28;20080;-83
2022/10/21 07:51:08;;;;;;;29.08;16.20;;;;;;;13.86;98.91;99465.81;5039011;28;20057;-83
2022/10/21 07:53:36;;;;;;;24.15;14.48;;;;;;;13.96;98.72;99465.66;5027290;28;20045;-82
2022/10/21 07:56:15;;;;;;;30.35;15.85;;;;;;;13.92;99.13;99465.16;5025894;28;20040;-82
2022/10/21 07:58:42;;;;;;;27.05;14.85;;;;;;;14.02;98.96;99473.00;5021858;28;20052;-82
2022/10/21 08:01:10;;;;;;;27.67;14.70;;;;;;;14.03;98.98;99478.16;5043843;28;20037;-82
2022/10/21 08:03:37;;;;;;;31.42;15.65;;;;;;;14.04;99.36;99479.84;5023546;28;20041;-83
2022/10/21 08:06:05;;;;;;;29.02;16.38;;;;;;;14.06;99.12;99479.66;5046604;28;20087;-82
2022/10/21 08:08:32;;;;;;;32.50;16.35;;;;;;;14.07;99.57;99479.50;5048651;28;20575;-83
2022/10/21 08:11:00;;;;;;;34.97;18.73;;;;;;;14.07;99.41;99476.84;5052119;28;20041;-82
2022/10/21 08:13:27;;;;;;;30.10;17.90;;;;;;;14.06;99.45;99485.81;5041073;28;20505;-82
2022/10/21 08:15:55;;;;;;;37.90;19.20;;;;;;;14.09;99.54;99485.53;5036175;28;20096;-83
2022/10/21 08:18:22;;;;;;;32.17;17.48;;;;;;;14.10;99.52;99494.34;5029182;28;20099;-83
2022/10/21 08:20:49;;;;;;;32.90;16.73;;;;;;;14.08;100.00;99493.69;5037080;28;20091;-82
2022/10/21 08:23:17;;;;;;;30.58;16.73;;;;;;;14.13;99.63;99503.88;5040087;28;20040;-82
2022/10/21 08:25:47;;;;;;;29.15;16.13;;;;;;;14.12;99.66;99495.03;5038606;28;20131;-82
2022/10/21 08:28:14;;;;;;;32.75;16.17;;;;;;;14.15;99.66;99486.69;5055631;28;20048;-82
2022/10/21 08:30:42;;;;;;;30.58;16.17;;;;;;;14.17;99.75;99475.81;5028234;28;20068;-82
2022/10/21 08:33:09;;;;;;;30.17;17.05;;;;;;;14.19;99.92;99481.81;5037176;28;20048;-82
2022/10/21 08:35:35;;;;;;;32.80;16.65;;;;;;;14.19;99.92;99490.66;5025451;28;20119;-82
2022/10/21 08:38:02;;;;;;;27.58;16.35;;;;;;;14.18;100.00;99482.84;5051207;28;20102;-82
2022/10/21 08:40:36;;;;;;;38.10;15.80;;;;;;;14.16;100.00;99490.19;5033863;28;20037;-82
2022/10/21 08:43:16;;;;;;;26.38;14.88;;;;;;;14.15;100.00;99504.53;5036836;28;20052;-82
2022/10/21 08:45:48;;;;;;;30.27;16.33;;;;;;;14.20;99.92;99499.53;5012370;28;20059;-83
2022/10/21 08:48:23;;;;;;;33.33;16.33;;;;;;;14.18;100.00;99478.31;5055423;28;20075;-82
2022/10/21 08:50:50;;;;;;;34.25;17.85;;;;;;;14.18;100.00;99469.50;5037190;28;20496;-82
2022/10/21 08:53:26;;;;;;;47.40;18.98;;;;;;;14.13;100.00;99487.84;5043162;28;20098;-83
2022/10/21 08:56:00;;;;;;;29.15;15.85;;;;;;;14.15;100.00;99462.66;5023322;28;20641;-82
2022/10/21 08:58:27;;;;;;;34.53;17.85;;;;;;;14.19;100.00;99463.13;5028552;28;20075;-83
2022/10/21 09:01:04;;;;;;;31.20;16.08;;;;;;;14.19;100.00;99481.81;5042345;28;20392;-83
2022/10/21 09:03:46;;;;;;;33.78;16.38;;;;;;;14.20;100.00;99459.47;5027482;28;20063;-82
2022/10/21 09:06:20;;;;;;;28.52;15.98;;;;;;;14.20;100.00;99480.84;5018776;28;20132;-82
2022/10/21 09:09:11;;;;;;;25.98;14.25;;;;;;;14.15;100.00;99492.03;5034079;28;20111;-83
2022/10/21 09:11:53;;;;;;;22.92;13.35;;;;;;;14.22;100.00;99498.38;5000966;28;20040;-82
2022/10/21 09:14:42;;;;;;;21.60;13.30;;;;;;;14.17;100.00;99503.38;5014597;28;20049;-82
2022/10/21 09:17:20;;;;;;;25.90;14.98;;;;;;;14.27;100.00;99498.69;4991968;28;20040;-82
2022/10/21 09:20:08;;;;;;;29.88;15.05;;;;;;;14.23;100.00;99517.88;5024629;28;20493;-82
2022/10/21 09:22:53;;;;;;;24.23;13.25;;;;;;;14.25;100.00;99529.25;5006270;28;20082;-82
2022/10/21 09:25:38;;;;;;;24.20;14.35;;;;;;;14.34;100.00;99529.03;5023294;28;20068;-82
2022/10/21 09:28:11;;;;;;;27.95;13.75;;;;;;;14.31;100.00;99521.38;5011856;28;20052;-83
2022/10/21 09:30:39;;;;;;;29.63;13.98;;;;;;;14.36;100.00;99520.06;5043649;28;20500;-83
2022/10/21 09:33:20;;;;;;;30.10;16.15;;;;;;;14.31;100.00;99536.56;5036842;28;20033;-83
2022/10/21 09:36:08;;;;;;;28.05;15.25;;;;;;;14.28;100.00;99527.06;5025528;28;20065;-82
2022/10/21 09:38:41;;;;;;;31.52;16.92;;;;;;;14.37;100.00;99524.38;5010204;28;20045;-82
2022/10/21 09:41:13;;;;;;;27.98;16.40;;;;;;;14.34;100.00;99534.38;5044022;28;20428;-83
2022/10/21 09:43:40;;;;;;;27.37;15.80;;;;;;;14.37;100.00;99538.56;5046787;28;20124;-83
2022/10/21 09:46:11;;;;;;;23.63;14.15;;;;;;;14.38;100.00;99553.59;5030190;28;21020;-82
2022/10/21 09:48:44;;;;;;;23.75;13.23;;;;;;;14.38;100.00;99540.25;5029205;28;20496;-82
2022/10/21 09:51:38;;;;;;;23.27;12.48;;;;;;;14.38;100.00;99545.59;5013487;28;20139;-82
2022/10/21 09:54:09;;;;;;;21.10;11.30;;;;;;;14.44;100.00;99546.75;5003689;28;20045;-83
2022/10/21 09:56:44;;;;;;;26.42;13.90;;;;;;;14.45;100.00;99548.41;5005524;28;20077;-83
2022/10/21 09:59:20;;;;;;;21.33;12.30;;;;;;;14.49;100.00;99541.75;4957899;28;20457;-83
2022/10/21 10:01:47;;;;;;;24.55;13.52;;;;;;;14.53;100.00;99543.13;4974155;28;20496;-83
2022/10/21 10:04:34;;;;;;;23.65;12.30;;;;;;;14.49;100.00;99545.25;4980201;28;20471;-83
2022/10/21 10:07:18;;;;;;;25.25;12.25;;;;;;;14.61;100.00;99543.09;4992609;28;20045;-83
2022/10/21 10:09:45;;;;;;;21.33;10.57;;;;;;;14.64;100.00;99545.44;4989942;28;20045;-83
2022/10/21 10:12:14;;;;;;;21.13;11.43;;;;;;;14.67;100.00;99546.94;5011781;28;20430;-82
2022/10/21 10:14:43;;;;;;;19.75;10.00;;;;;;;14.69;100.00;99535.06;5012626;28;20145;-82
2022/10/21 10:17:16;;;;;;;20.17;11.02;;;;;;;14.68;100.00;99533.41;5021492;28;20043;-83
2022/10/21 10:19:43;;;;;;;23.65;12.77;;;;;;;14.72;100.00;99533.91;5024049;28;20042;-82
2022/10/21 10:22:14;;;;;;;24.20;11.95;;;;;;;14.75;100.00;99541.56;5010219;28;20042;-82
2022/10/21 10:24:44;;;;;;;25.55;10.65;;;;;;;14.79;100.00;99548.25;5025833;28;20064;-82
2022/10/21 10:27:19;;;;;;;16.85;9.65;;;;;;;14.76;100.00;99536.06;5054169;28;20049;-82
2022/10/21 10:29:52;;;;;;;17.90;9.10;;;;;;;14.80;100.00;99541.06;5040513;28;20499;-82
2022/10/21 10:32:22;;;;;;;18.08;8.63;;;;;;;14.85;100.00;99546.72;5027959;28;20119;-83
2022/10/21 10:34:57;;;;;;;19.27;9.60;;;;;;;14.84;100.00;99539.72;5023182;28;20045;-83
2022/10/21 10:37:30;;;;;;;14.13;8.18;;;;;;;14.89;100.00;99545.41;5027357;28;20052;-82
2022/10/21 10:39:58;;;;;;;16.75;8.32;;;;;;;14.92;100.00;99545.06;5031339;28;20403;-82
2022/10/21 10:42:28;;;;;;;10.68;6.53;;;;;;;14.95;100.00;99547.38;5039638;28;20486;-82
2022/10/21 10:44:57;;;;;;;12.27;6.43;;;;;;;14.97;100.00;99554.22;5036368;28;20045;-82
2022/10/21 10:47:29;;;;;;;12.48;5.10;;;;;;;14.98;100.00;99549.69;5028400;28;20044;-81
2022/10/21 10:49:56;;;;;;;7.28;4.07;;;;;;;15.01;100.00;99545.84;5050617;28;20041;-82
2022/10/21 10:52:23;;;;;;;13.10;4.45;;;;;;;15.04;100.00;99553.56;5029101;28;20071;-82
2022/10/21 10:55:22;;;;;;;10.10;4.00;;;;;;;14.95;100.00;99555.41;5037729;28;20116;-82
2022/10/21 10:57:52;;;;;;;11.32;3.15;;;;;;;15.05;100.00;99549.88;4957954;28;20107;-82
2022/10/21 11:00:40;;;;;;;5.53;3.45;;;;;;;15.06;100.00;99551.53;4994770;28;20052;-82
2022/10/21 11:03:14;;;;;;;7.40;3.13;;;;;;;15.04;100.00;99550.88;5016020;28;20041;-82
2022/10/21 11:06:17;;;;;;;9.55;2.60;;;;;;;14.99;100.00;99556.75;5024105;28;20484;-82
2022/10/21 11:08:53;;;;;;;8.90;3.53;;;;;;;15.04;100.00;99551.72;4973062;28;20041;-82
2022/10/21 11:11:25;;;;;;;6.75;3.10;;;;;;;15.09;100.00;99552.03;5028029;28;20476;-82
2022/10/21 11:13:52;;;;;;;9.20;3.13;;;;;;;15.15;100.00;99556.69;5035668;28;20045;-82
2022/10/21 11:16:56;;;;;;;8.63;2.90;;;;;;;15.11;100.00;99559.88;5025247;28;20121;-82
2022/10/21 11:19:35;;;;;;;8.70;2.88;;;;;;;15.19;100.00;99554.50;4974448;28;20049;-82
2022/10/21 11:22:10;;;;;;;7.85;3.60;;;;;;;15.18;100.00;99553.66;5015189;28;20057;-82
2022/10/21 11:24:50;;;;;;;10.32;2.85;;;;;;;15.23;100.00;99547.78;5022944;28;20036;-83
2022/10/21 11:27:31;;;;;;;5.07;2.53;;;;;;;15.29;100.00;99541.78;5039696;28;20039;-82
2022/10/21 11:30:11;;;;;;;11.43;3.25;;;;;;;15.31;100.00;99537.06;5022544;28;20126;-82
2022/10/21 11:33:12;;;;;;;7.25;3.92;;;;;;;15.27;100.00;99534.91;5023860;28;20412;-82